Time;durP1;ratioP1;P1;durP2;ratioP2;P2;SDS_P1;SDS_P2;PMS_P1;PMS_P2;Temp;Humidity;BMP_temperature;BMP_pressure;BME280_temperature;BME280_humidity;BME280_pressure;Samples;Min_cycle;Max_cycle;Signal;HPM_P1;HPM_P2
2023/04/11 00:01:28;;;;;;;71.80;30.17;;;;;;;;;;754898;185;629115;-77
2023/04/11 00:03:55;;;;;;;66.57;30.40;;;;;;;;;;756236;183;627409;-78
2023/04/11 00:06:20;;;;;;;71.67;33.90;;;;;;;;;;775094;181;636578;-79
2023/04/11 00:08:46;;;;;;;66.67;30.70;;;;;;;;;;761567;182;625068;-79
2023/04/11 00:11:12;;;;;;;66.10;29.57;;;;;;;;;;761322;181;624230;-79
2023/04/11 00:13:37;;;;;;;70.40;32.30;;;;;;;;;;772226;181;634412;-79
2023/04/11 00:16:04;;;;;;;61.67;32.63;;;;;;;;;;765845;181;682650;-79
2023/04/11 00:18:29;;;;;;;75.50;35.97;;;;;;;;;;766176;182;623573;-78
2023/04/11 00:20:55;;;;;;;71.30;32.50;;;;;;;;;;767879;182;632287;-78
2023/04/11 00:23:21;;;;;;;66.50;31.60;;;;;;;;;;766792;181;617504;-78
2023/04/11 00:25:47;;;;;;;62.40;33.90;;;;;;;;;;768073;180;631211;-78
2023/04/11 00:28:13;;;;;;;86.13;36.40;;;;;;;;;;761962;181;629473;-77
2023/04/11 00:30:39;;;;;;;113.20;37.47;;;;;;;;;;772809;182;617753;-78
2023/04/11 00:33:04;;;;;;;94.57;38.70;;;;;;;;;;764922;184;631906;-77
2023/04/11 00:35:33;;;;;;;87.67;39.10;;;;;;;;;;750627;187;637275;-78
2023/04/11 00:37:57;;;;;;;118.70;36.50;;;;;;;;;;765539;183;628949;-77
2023/04/11 00:40:22;;;;;;;75.20;34.20;;;;;;;;;;760161;179;621483;-77
2023/04/11 00:42:48;;;;;;;92.40;37.67;;;;;;;;;;766264;181;628795;-76
2023/04/11 00:45:14;;;;;;;89.27;41.37;;;;;;;;;;762916;183;634806;-77
2023/04/11 00:47:40;;;;;;;84.50;39.17;;;;;;;;;;760138;182;635634;-77
2023/04/11 00:50:06;;;;;;;114.33;42.53;;;;;;;;;;761840;182;654943;-78
2023/04/11 00:52:32;;;;;;;104.77;32.13;;;;;;;;;;761876;182;631283;-76
2023/04/11 00:54:58;;;;;;;102.30;36.23;;;;;;;;;;750218;185;627544;-77
2023/04/11 00:57:24;;;;;;;92.03;39.83;;;;;;;;;;753953;184;628686;-79
2023/04/11 00:59:50;;;;;;;83.13;36.10;;;;;;;;;;749871;185;615989;-79
2023/04/11 01:02:16;;;;;;;99.80;39.40;;;;;;;;;;763650;185;627442;-79
2023/04/11 01:04:42;;;;;;;86.97;38.40;;;;;;;;;;765276;181;650451;-78
2023/04/11 01:07:07;;;;;;;140.07;38.07;;;;;;;;;;759224;184;626644;-79
2023/04/11 01:09:33;;;;;;;204.40;42.47;;;;;;;;;;760594;184;629737;-77
2023/04/11 01:12:00;;;;;;;139.60;37.90;;;;;;;;;;761911;185;633431;-78
2023/04/11 01:14:25;;;;;;;146.33;38.87;;;;;;;;;;764183;185;622432;-81
2023/04/11 01:16:51;;;;;;;110.63;36.58;;;;;;;;;;765593;182;644344;-79
2023/04/11 01:19:17;;;;;;;93.90;37.80;;;;;;;;;;761182;185;617363;-79
2023/04/11 01:21:43;;;;;;;220.23;43.63;;;;;;;;;;744243;186;630624;-79
2023/04/11 01:24:10;;;;;;;175.43;43.10;;;;;;;;;;752869;182;633666;-78
2023/04/11 01:26:35;;;;;;;85.07;40.50;;;;;;;;;;765568;182;630797;-78
2023/04/11 01:29:01;;;;;;;87.20;37.10;;;;;;;;;;756050;184;629717;-78
2023/04/11 01:31:27;;;;;;;132.93;40.50;;;;;;;;;;758804;183;627827;-79
2023/04/11 01:33:53;;;;;;;175.03;42.47;;;;;;;;;;761435;184;624154;-76
2023/04/11 01:36:18;;;;;;;177.13;40.80;;;;;;;;;;757740;185;642383;-79
2023/04/11 01:38:44;;;;;;;141.32;38.35;;;;;;;;;;760604;182;659982;-79
2023/04/11 01:41:10;;;;;;;209.67;38.90;;;;;;;;;;776011;182;626170;-77
2023/04/11 01:43:36;;;;;;;455.17;55.07;;;;;;;;;;763803;182;660502;-79
2023/04/11 01:46:02;;;;;;;212.70;40.57;;;;;;;;;;762415;179;628561;-77
2023/04/11 01:48:28;;;;;;;280.23;43.50;;;;;;;;;;762122;181;618900;-79
2023/04/11 01:50:55;;;;;;;408.07;49.60;;;;;;;;;;767911;182;635882;-78
2023/04/11 01:53:19;;;;;;;143.53;36.93;;;;;;;;;;754933;185;647742;-77
2023/04/11 01:55:45;;;;;;;109.80;31.17;;;;;;;;;;766458;182;630636;-78
2023/04/11 01:58:11;;;;;;;164.60;37.73;;;;;;;;;;767433;181;631494;-78
2023/04/11 02:00:37;;;;;;;150.60;42.10;;;;;;;;;;765034;183;618100;-78
2023/04/11 02:03:03;;;;;;;153.30;38.37;;;;;;;;;;766316;183;641742;-79
2023/04/11 02:05:29;;;;;;;187.43;39.33;;;;;;;;;;771999;182;638614;-79
2023/04/11 02:07:54;;;;;;;65.53;26.47;;;;;;;;;;761471;181;633381;-78
2023/04/11 02:10:20;;;;;;;254.67;34.03;;;;;;;;;;761133;182;635188;-78
2023/04/11 02:12:46;;;;;;;118.30;30.30;;;;;;;;;;762766;181;630869;-79
2023/04/11 02:15:12;;;;;;;131.73;27.90;;;;;;;;;;770382;182;621204;-79
2023/04/11 02:17:44;;;;;;;354.37;36.47;;;;;;;;;;764140;185;634020;-78
2023/04/11 02:20:05;;;;;;;224.03;33.07;;;;;;;;;;763377;183;632063;-79
2023/04/11 02:22:30;;;;;;;63.53;25.27;;;;;;;;;;765986;181;637699;-79
2023/04/11 02:24:56;;;;;;;134.83;28.40;;;;;;;;;;762087;182;637105;-78
2023/04/11 02:27:21;;;;;;;137.37;29.63;;;;;;;;;;764577;182;629085;-78
2023/04/11 02:29:47;;;;;;;261.43;32.80;;;;;;;;;;763118;182;638888;-79
2023/04/11 02:32:13;;;;;;;115.70;30.10;;;;;;;;;;749857;185;628818;-79
2023/04/11 02:34:40;;;;;;;92.77;28.90;;;;;;;;;;754943;183;621407;-78
2023/04/11 02:37:05;;;;;;;56.15;23.75;;;;;;;;;;753666;185;617359;-78
2023/04/11 02:39:31;;;;;;;103.30;30.93;;;;;;;;;;761569;187;618073;-79
2023/04/11 02:41:57;;;;;;;82.07;28.27;;;;;;;;;;755337;183;644966;-78
2023/04/11 02:44:25;;;;;;;67.20;28.87;;;;;;;;;;760766;185;643156;-78
2023/04/11 02:46:48;;;;;;;57.17;25.20;;;;;;;;;;757301;185;696674;-79
2023/04/11 02:49:14;;;;;;;57.60;25.08;;;;;;;;;;749629;185;797089;-78
2023/04/11 02:51:40;;;;;;;65.63;26.57;;;;;;;;;;760741;183;655000;-78
2023/04/11 02:54:06;;;;;;;78.10;27.10;;;;;;;;;;756077;185;646934;-77
2023/04/11 02:56:33;;;;;;;168.10;29.00;;;;;;;;;;760148;183;636661;-78
2023/04/11 02:58:58;;;;;;;214.30;33.07;;;;;;;;;;758392;183;642809;-77
2023/04/11 03:01:24;;;;;;;103.87;31.20;;;;;;;;;;765158;181;633042;-79
2023/04/11 03:03:50;;;;;;;91.80;28.77;;;;;;;;;;765742;181;622480;-78
2023/04/11 03:06:16;;;;;;;63.27;26.87;;;;;;;;;;765987;182;639410;-79
2023/04/11 03:08:42;;;;;;;99.70;30.50;;;;;;;;;;755468;184;631380;-79
2023/04/11 03:11:08;;;;;;;97.93;31.17;;;;;;;;;;758551;184;618757;-78
2023/04/11 03:13:35;;;;;;;119.03;33.70;;;;;;;;;;761018;183;683512;-79
2023/04/11 03:15:59;;;;;;;92.10;28.70;;;;;;;;;;764973;181;613657;-78
2023/04/11 03:18:25;;;;;;;94.90;29.73;;;;;;;;;;768634;182;634288;-78
2023/04/11 03:20:51;;;;;;;55.87;25.73;;;;;;;;;;765874;182;646523;-78
2023/04/11 03:23:17;;;;;;;94.20;31.27;;;;;;;;;;764895;183;644441;-79
2023/04/11 03:25:44;;;;;;;100.37;32.90;;;;;;;;;;755351;184;647850;-78
2023/04/11 03:28:09;;;;;;;136.67;43.60;;;;;;;;;;767478;180;627996;-79
2023/04/11 03:30:39;;;;;;;176.50;41.83;;;;;;;;;;758751;183;911044;-78
2023/04/11 03:33:01;;;;;;;90.90;30.37;;;;;;;;;;758092;183;662484;-79
2023/04/11 03:35:27;;;;;;;78.47;25.27;;;;;;;;;;766813;181;638899;-78
2023/04/11 03:37:53;;;;;;;51.63;22.33;;;;;;;;;;768785;181;628766;-77
2023/04/11 03:40:19;;;;;;;84.87;27.10;;;;;;;;;;764301;181;639721;-78
2023/04/11 03:42:45;;;;;;;103.63;29.70;;;;;;;;;;770514;180;645863;-77
2023/04/11 03:45:11;;;;;;;75.80;26.73;;;;;;;;;;767852;180;642415;-78
2023/04/11 03:47:38;;;;;;;173.70;30.47;;;;;;;;;;736456;187;1741421;-78
2023/04/11 03:50:04;;;;;;;92.43;25.57;;;;;;;;;;740404;188;638735;-78
2023/04/11 03:52:30;;;;;;;57.87;24.10;;;;;;;;;;748358;187;635692;-78
2023/04/11 03:54:56;;;;;;;43.10;22.70;;;;;;;;;;760822;182;626063;-78
2023/04/11 03:57:21;;;;;;;56.17;23.53;;;;;;;;;;762693;181;657699;-78
2023/04/11 03:59:47;;;;;;;28.67;16.80;;;;;;;;;;767422;182;632967;-77
2023/04/11 04:02:13;;;;;;;44.63;19.57;;;;;;;;;;768164;181;689930;-78
2023/04/11 04:04:42;;;;;;;36.40;19.90;;;;;;;;;;761864;182;712514;-79
2023/04/11 04:07:05;;;;;;;63.27;27.77;;;;;;;;;;767919;180;623561;-78
2023/04/11 04:09:31;;;;;;;40.57;22.43;;;;;;;;;;761740;182;654473;-79
2023/04/11 04:11:57;;;;;;;41.00;20.93;;;;;;;;;;753692;184;628440;-78
2023/04/11 04:14:22;;;;;;;44.83;20.67;;;;;;;;;;758317;182;786051;-79
2023/04/11 04:16:48;;;;;;;176.73;30.53;;;;;;;;;;754093;182;640975;-78
2023/04/11 04:19:14;;;;;;;78.40;25.23;;;;;;;;;;757625;182;688816;-78
2023/04/11 04:21:40;;;;;;;121.00;27.23;;;;;;;;;;755054;182;626402;-78
2023/04/11 04:24:06;;;;;;;52.97;23.37;;;;;;;;;;766728;184;633164;-76
2023/04/11 04:26:32;;;;;;;45.47;22.00;;;;;;;;;;763255;183;630252;-77
2023/04/11 04:29:03;;;;;;;56.23;24.03;;;;;;;;;;750862;183;623628;-78
2023/04/11 04:31:28;;;;;;;110.83;27.30;;;;;;;;;;757058;182;624063;-77
2023/04/11 04:33:51;;;;;;;99.67;29.50;;;;;;;;;;749007;184;630535;-77
2023/04/11 04:36:17;;;;;;;103.30;28.40;;;;;;;;;;752956;187;617258;-77
2023/04/11 04:38:43;;;;;;;81.07;25.97;;;;;;;;;;765231;182;670093;-76
2023/04/11 04:41:13;;;;;;;104.87;31.87;;;;;;;;;;760800;182;643312;-78
2023/04/11 04:43:40;;;;;;;61.47;24.83;;;;;;;;;;757337;182;681582;-77
2023/04/11 04:46:03;;;;;;;92.00;25.73;;;;;;;;;;752850;183;624518;-79
2023/04/11 04:48:29;;;;;;;63.73;23.33;;;;;;;;;;767499;183;623823;-77
2023/04/11 04:50:55;;;;;;;59.87;23.13;;;;;;;;;;764906;179;640852;-78
2023/04/11 04:53:21;;;;;;;79.90;24.73;;;;;;;;;;765515;181;642967;-79
2023/04/11 04:55:47;;;;;;;63.13;24.70;;;;;;;;;;766048;184;663148;-78
2023/04/11 04:58:13;;;;;;;112.60;28.57;;;;;;;;;;764354;179;627549;-77
2023/04/11 05:00:39;;;;;;;59.70;23.87;;;;;;;;;;759457;181;769951;-76
2023/04/11 05:03:07;;;;;;;61.73;23.37;;;;;;;;;;747339;184;981887;-78
2023/04/11 05:05:31;;;;;;;55.63;23.50;;;;;;;;;;752960;182;665682;-78
2023/04/11 05:07:56;;;;;;;69.03;23.30;;;;;;;;;;759053;182;699749;-78
2023/04/11 05:10:22;;;;;;;41.53;23.23;;;;;;;;;;757619;181;637749;-78
2023/04/11 05:12:48;;;;;;;39.90;22.30;;;;;;;;;;759651;183;667733;-77
2023/04/11 05:15:14;;;;;;;34.60;21.23;;;;;;;;;;749978;184;634940;-79
2023/04/11 05:17:39;;;;;;;42.93;24.93;;;;;;;;;;767777;181;621717;-79
2023/04/11 05:20:07;;;;;;;54.77;32.13;;;;;;;;;;764187;181;631182;-79
2023/04/11 05:22:31;;;;;;;38.83;24.17;;;;;;;;;;762182;181;642634;-79
2023/04/11 05:24:57;;;;;;;42.83;24.63;;;;;;;;;;764025;182;628713;-78
2023/04/11 05:27:23;;;;;;;39.97;23.30;;;;;;;;;;768006;181;802440;-78
2023/04/11 05:29:50;;;;;;;35.67;21.30;;;;;;;;;;766132;182;689374;-79
2023/04/11 05:32:15;;;;;;;43.03;23.87;;;;;;;;;;756938;182;663885;-79
2023/04/11 05:34:47;;;;;;;39.70;23.13;;;;;;;;;;758667;184;631068;-78
2023/04/11 05:37:12;;;;;;;41.33;28.23;;;;;;;;;;756473;184;631311;-77
2023/04/11 05:39:38;;;;;;;39.60;21.80;;;;;;;;;;766662;181;665990;-77
2023/04/11 05:42:04;;;;;;;34.80;21.10;;;;;;;;;;759736;181;757014;-79
2023/04/11 05:44:30;;;;;;;35.10;20.30;;;;;;;;;;769622;179;629247;-76
2023/04/11 05:46:56;;;;;;;40.87;26.07;;;;;;;;;;762358;181;741313;-79
2023/04/11 05:49:22;;;;;;;32.57;21.80;;;;;;;;;;761767;181;637628;-78
2023/04/11 05:51:47;;;;;;;35.13;20.70;;;;;;;;;;762696;182;620608;-79
2023/04/11 05:54:13;;;;;;;30.73;20.20;;;;;;;;;;752255;186;639903;-78
2023/04/11 05:56:41;;;;;;;28.27;19.17;;;;;;;;;;757405;183;649587;-77
2023/04/11 05:59:05;;;;;;;39.00;24.07;;;;;;;;;;757230;184;632652;-78
2023/04/11 06:01:31;;;;;;;32.20;17.93;;;;;;;;;;757383;185;635340;-77
2023/04/11 06:03:57;;;;;;;26.97;18.23;;;;;;;;;;752282;182;635510;-78
2023/04/11 06:06:23;;;;;;;30.33;17.48;;;;;;;;;;757467;182;629956;-78
2023/04/11 06:08:50;;;;;;;30.03;20.23;;;;;;;;;;751453;184;683458;-77
2023/04/11 06:11:14;;;;;;;33.20;19.80;;;;;;;;;;764351;182;629242;-79
2023/04/11 06:13:40;;;;;;;32.63;21.30;;;;;;;;;;769293;182;629271;-79
2023/04/11 06:16:07;;;;;;;35.90;21.02;;;;;;;;;;761477;184;631129;-80
2023/04/11 06:18:33;;;;;;;37.63;21.30;;;;;;;;;;760928;182;619487;-79
2023/04/11 06:20:58;;;;;;;35.07;19.23;;;;;;;;;;767523;182;623122;-80
2023/04/11 06:23:24;;;;;;;27.87;18.63;;;;;;;;;;756393;184;652502;-77
2023/04/11 06:25:50;;;;;;;35.60;20.50;;;;;;;;;;758487;184;634876;-78
2023/04/11 06:28:16;;;;;;;32.93;21.00;;;;;;;;;;775920;181;639147;-80
2023/04/11 06:30:42;;;;;;;26.53;16.23;;;;;;;;;;770588;181;709150;-80
2023/04/11 06:33:08;;;;;;;28.00;18.00;;;;;;;;;;762739;184;619452;-78
2023/04/11 06:35:33;;;;;;;24.10;17.07;;;;;;;;;;749664;185;621351;-79
2023/04/11 06:37:59;;;;;;;27.43;18.63;;;;;;;;;;769822;179;634024;-78
2023/04/11 06:40:25;;;;;;;29.77;19.70;;;;;;;;;;771243;181;626573;-78
2023/04/11 06:42:51;;;;;;;26.93;17.33;;;;;;;;;;763362;182;636212;-77
2023/04/11 06:45:17;;;;;;;34.37;18.17;;;;;;;;;;760896;182;633002;-79
2023/04/11 06:47:43;;;;;;;27.27;19.00;;;;;;;;;;759728;184;629613;-79
2023/04/11 06:50:09;;;;;;;26.47;17.80;;;;;;;;;;767074;184;626864;-79
2023/04/11 06:52:35;;;;;;;34.47;20.57;;;;;;;;;;768215;182;627123;-78
2023/04/11 06:55:01;;;;;;;35.73;21.73;;;;;;;;;;760582;183;637044;-79
2023/04/11 06:57:26;;;;;;;31.07;20.87;;;;;;;;;;767918;182;635397;-79
2023/04/11 06:59:52;;;;;;;35.30;19.67;;;;;;;;;;770108;179;627670;-76
2023/04/11 07:02:18;;;;;;;31.30;19.53;;;;;;;;;;771036;179;632761;-76
2023/04/11 07:04:44;;;;;;;32.20;21.10;;;;;;;;;;752865;184;630669;-78
2023/04/11 07:07:10;;;;;;;31.83;21.80;;;;;;;;;;761806;182;638876;-78
2023/04/11 07:09:36;;;;;;;32.77;20.37;;;;;;;;;;752748;185;640535;-77
2023/04/11 07:12:01;;;;;;;34.07;22.13;;;;;;;;;;748053;185;648861;-79
2023/04/11 07:14:27;;;;;;;32.20;20.77;;;;;;;;;;764193;183;614875;-79
2023/04/11 07:16:53;;;;;;;38.03;22.63;;;;;;;;;;766762;183;635271;-78
2023/04/11 07:19:19;;;;;;;35.93;20.93;;;;;;;;;;776186;179;645697;-79
2023/04/11 07:21:45;;;;;;;37.00;23.37;;;;;;;;;;773593;180;614014;-79
2023/04/11 07:24:12;;;;;;;36.23;21.87;;;;;;;;;;762800;180;641394;-79
2023/04/11 07:26:37;;;;;;;35.57;23.60;;;;;;;;;;765130;183;662978;-79
2023/04/11 07:29:03;;;;;;;35.93;21.90;;;;;;;;;;771837;180;635829;-76
2023/04/11 07:31:28;;;;;;;42.47;25.10;;;;;;;;;;762087;182;649421;-79
2023/04/11 07:33:54;;;;;;;34.63;25.20;;;;;;;;;;752311;185;645775;-76
2023/04/11 07:36:20;;;;;;;54.67;32.57;;;;;;;;;;747503;185;644717;-78
2023/04/11 07:38:46;;;;;;;41.47;24.17;;;;;;;;;;769856;182;630042;-78
2023/04/11 07:41:12;;;;;;;44.03;23.20;;;;;;;;;;755055;180;621414;-76
2023/04/11 07:43:38;;;;;;;32.70;20.13;;;;;;;;;;764619;180;650813;-78
2023/04/11 07:46:03;;;;;;;36.37;22.23;;;;;;;;;;767818;182;663357;-78
2023/04/11 07:48:30;;;;;;;30.47;20.70;;;;;;;;;;764158;183;631028;-79
2023/04/11 07:50:55;;;;;;;31.77;20.87;;;;;;;;;;750416;184;634160;-79
2023/04/11 07:53:21;;;;;;;30.93;20.10;;;;;;;;;;757997;183;623054;-79
2023/04/11 07:55:47;;;;;;;30.63;20.30;;;;;;;;;;763590;183;625506;-80
2023/04/11 07:58:13;;;;;;;33.40;21.90;;;;;;;;;;753397;184;639638;-78
2023/04/11 08:00:39;;;;;;;30.30;19.30;;;;;;;;;;761181;182;791125;-79
2023/04/11 08:03:04;;;;;;;37.47;21.90;;;;;;;;;;762515;182;642021;-78
2023/04/11 08:05:30;;;;;;;31.97;21.47;;;;;;;;;;759369;182;644947;-79
2023/04/11 08:07:56;;;;;;;35.73;21.77;;;;;;;;;;769103;182;637442;-79
2023/04/11 08:10:22;;;;;;;32.47;22.87;;;;;;;;;;773509;179;733412;-77
2023/04/11 08:12:48;;;;;;;30.10;20.53;;;;;;;;;;756871;183;665302;-77
2023/04/11 08:15:14;;;;;;;33.73;23.13;;;;;;;;;;754508;182;687686;-78
2023/04/11 08:17:42;;;;;;;32.90;20.93;;;;;;;;;;769941;182;619075;-77
2023/04/11 08:20:08;;;;;;;27.17;19.67;;;;;;;;;;766683;181;669654;-78
2023/04/11 08:22:33;;;;;;;26.20;18.43;;;;;;;;;;757456;184;627278;-77
2023/04/11 08:24:59;;;;;;;26.60;17.43;;;;;;;;;;763923;183;628979;-78
2023/04/11 08:27:25;;;;;;;26.10;17.73;;;;;;;;;;760957;181;635101;-77
2023/04/11 08:29:51;;;;;;;24.20;17.27;;;;;;;;;;747667;184;645010;-76
2023/04/11 08:32:16;;;;;;;27.50;17.03;;;;;;;;;;755540;185;631364;-79
2023/04/11 08:34:42;;;;;;;28.37;18.20;;;;;;;;;;754019;185;633482;-77
2023/04/11 08:37:08;;;;;;;25.50;17.80;;;;;;;;;;752817;185;630499;-78
2023/04/11 08:39:34;;;;;;;23.90;16.50;;;;;;;;;;751923;184;767875;-77
2023/04/11 08:42:00;;;;;;;24.07;18.30;;;;;;;;;;760562;182;649278;-78
2023/04/11 08:44:26;;;;;;;24.33;16.27;;;;;;;;;;750524;182;718931;-79
2023/04/11 08:46:52;;;;;;;22.57;15.87;;;;;;;;;;752757;183;629410;-77
2023/04/11 08:49:17;;;;;;;25.30;15.60;;;;;;;;;;771453;181;643324;-79
2023/04/11 08:51:43;;;;;;;25.03;15.60;;;;;;;;;;767550;181;629670;-79
2023/04/11 08:54:09;;;;;;;20.43;14.10;;;;;;;;;;762048;182;621828;-79
2023/04/11 08:56:36;;;;;;;21.03;15.50;;;;;;;;;;761393;182;700848;-81
2023/04/11 08:59:01;;;;;;;24.57;16.13;;;;;;;;;;745945;185;691096;-79
2023/04/11 09:01:28;;;;;;;20.30;15.60;;;;;;;;;;766249;182;637159;-77
2023/04/11 09:03:54;;;;;;;24.27;16.50;;;;;;;;;;757144;184;624973;-78
2023/04/11 09:06:19;;;;;;;24.03;16.20;;;;;;;;;;770893;181;635594;-78
2023/04/11 09:08:45;;;;;;;23.47;17.27;;;;;;;;;;762525;181;688680;-78
2023/04/11 09:11:11;;;;;;;24.53;15.00;;;;;;;;;;757476;184;622592;-81
2023/04/11 09:13:37;;;;;;;19.50;15.23;;;;;;;;;;759847;183;629195;-78
2023/04/11 09:16:03;;;;;;;20.90;15.80;;;;;;;;;;757200;184;666638;-78
2023/04/11 09:18:30;;;;;;;22.20;15.87;;;;;;;;;;764105;182;736013;-78
2023/04/11 09:20:57;;;;;;;20.70;16.90;;;;;;;;;;767444;183;641752;-78
2023/04/11 09:23:24;;;;;;;20.80;14.40;;;;;;;;;;767159;181;628108;-77
2023/04/11 09:25:50;;;;;;;21.30;15.13;;;;;;;;;;765591;183;760345;-78
2023/04/11 09:28:15;;;;;;;21.80;15.37;;;;;;;;;;762779;184;637888;-78
2023/04/11 09:30:41;;;;;;;20.70;14.20;;;;;;;;;;768876;179;696446;-77
2023/04/11 09:33:13;;;;;;;20.70;13.73;;;;;;;;;;769049;179;671705;-77
2023/04/11 09:35:39;;;;;;;14.40;9.50;;;;;;;;;;764869;182;665849;-77
2023/04/11 09:38:08;;;;;;;12.40;9.40;;;;;;;;;;761477;183;750251;-78
2023/04/11 09:40:31;;;;;;;14.90;10.40;;;;;;;;;;770794;181;616387;-79
2023/04/11 09:42:57;;;;;;;17.10;9.60;;;;;;;;;;756465;181;630409;-78
2023/04/11 09:45:23;;;;;;;13.50;10.00;;;;;;;;;;764098;181;664203;-77
2023/04/11 09:47:49;;;;;;;13.83;9.97;;;;;;;;;;767176;181;729488;-77
2023/04/11 09:50:14;;;;;;;14.07;10.23;;;;;;;;;;733340;187;655620;-78
2023/04/11 09:52:41;;;;;;;15.10;8.83;;;;;;;;;;750603;184;647058;-77
2023/04/11 09:55:07;;;;;;;14.30;10.73;;;;;;;;;;765488;184;711117;-78
2023/04/11 09:57:32;;;;;;;18.97;10.57;;;;;;;;;;762659;181;717971;-79
2023/04/11 09:59:58;;;;;;;15.40;10.50;;;;;;;;;;762140;181;724875;-81
2023/04/11 10:02:25;;;;;;;13.67;9.50;;;;;;;;;;755546;185;660811;-81
2023/04/11 10:04:53;;;;;;;14.23;10.33;;;;;;;;;;764073;184;731403;-80
2023/04/11 10:07:17;;;;;;;15.47;10.37;;;;;;;;;;770327;180;663555;-81
2023/04/11 10:09:42;;;;;;;16.03;10.10;;;;;;;;;;760039;182;824744;-79
2023/04/11 10:12:08;;;;;;;14.40;9.17;;;;;;;;;;769597;183;750767;-80
2023/04/11 10:14:43;;;;;;;15.90;11.53;;;;;;;;;;763860;182;628656;-81
2023/04/11 10:17:10;;;;;;;14.20;10.60;;;;;;;;;;763199;182;636223;-79
2023/04/11 10:19:36;;;;;;;15.27;11.13;;;;;;;;;;760493;183;694026;-80
2023/04/11 10:22:01;;;;;;;20.67;11.53;;;;;;;;;;758766;182;643501;-81
2023/04/11 10:24:27;;;;;;;16.77;10.60;;;;;;;;;;761964;181;678769;-81
2023/04/11 10:26:54;;;;;;;16.05;11.63;;;;;;;;;;761685;181;641681;-79
2023/04/11 10:29:25;;;;;;;13.93;10.80;;;;;;;;;;761904;182;1430134;-79
2023/04/11 10:31:57;;;;;;;15.07;11.17;;;;;;;;;;766326;181;631404;-80
2023/04/11 10:34:23;;;;;;;14.70;9.90;;;;;;;;;;750186;183;662418;-79
2023/04/11 10:36:55;;;;;;;17.03;11.43;;;;;;;;;;742780;184;1665397;-79
2023/04/11 10:39:21;;;;;;;15.57;10.47;;;;;;;;;;748125;186;791551;-80
2023/04/11 10:41:47;;;;;;;16.57;10.40;;;;;;;;;;742463;181;4224493;-79
2023/04/11 10:44:13;;;;;;;16.47;11.17;;;;;;;;;;762425;184;664857;-80
2023/04/11 10:46:44;;;;;;;16.60;11.47;;;;;;;;;;753974;183;656578;-80
2023/04/11 10:49:11;;;;;;;14.83;8.90;;;;;;;;;;767330;180;642819;-79
2023/04/11 10:51:36;;;;;;;18.77;13.47;;;;;;;;;;747153;188;641845;-80
2023/04/11 10:54:02;;;;;;;17.30;12.27;;;;;;;;;;756317;184;661341;-81
2023/04/11 10:56:47;;;;;;;15.57;12.37;;;;;;;;;;759349;183;690029;-80
2023/04/11 10:59:18;;;;;;;20.23;11.60;;;;;;;;;;750920;185;1226879;-80
2023/04/11 11:01:44;;;;;;;18.37;13.70;;;;;;;;;;759715;180;640715;-80
2023/04/11 11:04:10;;;;;;;17.47;12.20;;;;;;;;;;756768;183;628245;-80
2023/04/11 11:06:37;;;;;;;18.83;13.70;;;;;;;;;;761939;183;663805;-81
2023/04/11 11:09:02;;;;;;;28.57;13.50;;;;;;;;;;762447;183;628755;-78
2023/04/11 11:11:28;;;;;;;19.50;12.83;;;;;;;;;;756547;182;638779;-79
2023/04/11 11:13:55;;;;;;;19.75;13.85;;;;;;;;;;756413;185;755939;-80
2023/04/11 11:16:21;;;;;;;17.00;13.77;;;;;;;;;;757194;182;1899141;-80
2023/04/11 11:18:47;;;;;;;20.10;13.80;;;;;;;;;;757718;180;1684523;-78
2023/04/11 11:21:14;;;;;;;19.90;13.95;;;;;;;;;;759594;182;637041;-80
2023/04/11 11:23:38;;;;;;;21.00;14.53;;;;;;;;;;764617;180;698113;-79
2023/04/11 11:26:04;;;;;;;17.17;13.30;;;;;;;;;;772725;181;666305;-80
2023/04/11 11:28:31;;;;;;;18.23;12.70;;;;;;;;;;759729;181;1963157;-78
2023/04/11 11:30:57;;;;;;;21.37;14.20;;;;;;;;;;756877;184;769520;-81
2023/04/11 11:33:23;;;;;;;20.40;12.87;;;;;;;;;;763260;184;628997;-79
2023/04/11 11:35:55;;;;;;;23.17;15.00;;;;;;;;;;760616;183;671136;-79
2023/04/11 11:38:20;;;;;;;20.83;13.00;;;;;;;;;;759606;182;711140;-81
2023/04/11 11:40:47;;;;;;;25.53;14.23;;;;;;;;;;756944;181;863006;-80
2023/04/11 11:43:12;;;;;;;21.60;14.33;;;;;;;;;;765046;183;656602;-81
2023/04/11 11:45:38;;;;;;;20.30;14.63;;;;;;;;;;767865;182;669647;-79
2023/04/11 11:48:04;;;;;;;18.23;12.17;;;;;;;;;;760967;182;668050;-81
2023/04/11 11:50:30;;;;;;;20.40;11.70;;;;;;;;;;760386;183;621312;-81
2023/04/11 11:52:58;;;;;;;19.07;11.93;;;;;;;;;;757945;184;797582;-79
2023/04/11 11:55:32;;;;;;;22.90;12.33;;;;;;;;;;773815;180;649472;-80
2023/04/11 11:57:58;;;;;;;15.03;11.27;;;;;;;;;;757264;182;716280;-79
2023/04/11 12:00:24;;;;;;;19.70;11.93;;;;;;;;;;769464;181;686939;-78
2023/04/11 12:02:50;;;;;;;18.50;11.13;;;;;;;;;;768171;182;741413;-81
2023/04/11 12:05:16;;;;;;;15.27;10.60;;;;;;;;;;762569;181;806314;-80
2023/04/11 12:07:42;;;;;;;15.47;11.50;;;;;;;;;;760863;184;632888;-81
2023/04/11 12:10:10;;;;;;;20.40;12.57;;;;;;;;;;761757;179;643696;-81
2023/04/11 12:12:35;;;;;;;18.60;12.43;;;;;;;;;;750170;183;668177;-79
2023/04/11 12:14:59;;;;;;;21.23;13.90;;;;;;;;;;758378;183;712986;-79
2023/04/11 12:17:25;;;;;;;19.77;13.20;;;;;;;;;;759655;185;822989;-78
2023/04/11 12:19:51;;;;;;;18.90;12.50;;;;;;;;;;752189;183;772852;-80
2023/04/11 12:22:17;;;;;;;23.27;14.27;;;;;;;;;;759732;184;659445;-80
2023/04/11 12:24:43;;;;;;;22.23;14.33;;;;;;;;;;758242;183;669004;-80
2023/04/11 12:27:11;;;;;;;24.50;14.70;;;;;;;;;;758015;182;634813;-80
2023/04/11 12:29:35;;;;;;;20.67;12.97;;;;;;;;;;770213;179;660760;-79
2023/04/11 12:32:01;;;;;;;21.90;14.20;;;;;;;;;;767379;181;656019;-80
2023/04/11 12:34:27;;;;;;;21.70;14.37;;;;;;;;;;767437;181;625129;-79
2023/04/11 12:36:53;;;;;;;22.93;14.77;;;;;;;;;;774330;181;675683;-80
2023/04/11 12:39:19;;;;;;;24.47;15.40;;;;;;;;;;761810;182;785515;-79
2023/04/11 12:41:44;;;;;;;25.10;16.00;;;;;;;;;;765239;183;646585;-79
2023/04/11 12:44:10;;;;;;;24.47;16.03;;;;;;;;;;764590;181;659459;-78
2023/04/11 12:46:36;;;;;;;29.40;16.77;;;;;;;;;;764409;183;632875;-79
2023/04/11 12:49:02;;;;;;;25.30;16.87;;;;;;;;;;766491;181;643342;-79
2023/04/11 12:51:28;;;;;;;21.80;14.73;;;;;;;;;;761134;181;816051;-77
2023/04/11 12:53:54;;;;;;;23.80;15.80;;;;;;;;;;761662;184;639362;-80
2023/04/11 12:56:20;;;;;;;22.43;15.37;;;;;;;;;;770353;182;627058;-80
2023/04/11 12:58:46;;;;;;;27.67;16.37;;;;;;;;;;754557;184;659387;-79
2023/04/11 13:01:11;;;;;;;20.80;14.30;;;;;;;;;;759055;184;628898;-79
2023/04/11 13:03:37;;;;;;;23.67;15.27;;;;;;;;;;751952;181;659669;-80
2023/04/11 13:06:03;;;;;;;22.90;15.30;;;;;;;;;;764135;182;734126;-79
2023/04/11 13:08:29;;;;;;;21.27;14.73;;;;;;;;;;762393;182;635914;-80
2023/04/11 13:10:55;;;;;;;27.60;16.60;;;;;;;;;;763194;181;635104;-77
2023/04/11 13:13:21;;;;;;;26.40;16.47;;;;;;;;;;762250;182;647612;-79
2023/04/11 13:15:47;;;;;;;28.30;17.10;;;;;;;;;;757502;182;644883;-78
2023/04/11 13:18:13;;;;;;;31.37;17.90;;;;;;;;;;748190;188;684438;-80
2023/04/11 13:20:39;;;;;;;26.77;16.23;;;;;;;;;;761020;182;659966;-80
2023/04/11 13:23:05;;;;;;;27.70;17.00;;;;;;;;;;766316;182;640278;-80
2023/04/11 13:25:33;;;;;;;26.15;16.75;;;;;;;;;;754235;184;1075659;-77
2023/04/11 13:27:59;;;;;;;28.10;18.07;;;;;;;;;;758616;183;690864;-80
2023/04/11 13:30:25;;;;;;;28.30;17.73;;;;;;;;;;764923;183;626478;-78
2023/04/11 13:32:51;;;;;;;32.23;19.13;;;;;;;;;;759065;181;1547322;-79
2023/04/11 13:35:17;;;;;;;34.37;20.77;;;;;;;;;;759450;182;685324;-80
2023/04/11 13:37:42;;;;;;;33.27;20.13;;;;;;;;;;763185;182;638228;-80
2023/04/11 13:40:10;;;;;;;29.90;20.43;;;;;;;;;;764315;183;628243;-80
2023/04/11 13:42:34;;;;;;;36.53;20.43;;;;;;;;;;761323;184;628052;-81
2023/04/11 13:45:00;;;;;;;29.80;19.27;;;;;;;;;;767834;180;617205;-80
2023/04/11 13:47:26;;;;;;;36.03;19.60;;;;;;;;;;763381;181;633551;-80
2023/04/11 13:49:52;;;;;;;37.63;20.73;;;;;;;;;;758464;181;633207;-80
2023/04/11 13:52:18;;;;;;;29.43;18.80;;;;;;;;;;761323;182;709281;-77
2023/04/11 13:54:44;;;;;;;30.80;19.20;;;;;;;;;;760337;182;627623;-79
2023/04/11 13:57:10;;;;;;;31.70;19.60;;;;;;;;;;757884;182;648360;-79